createdAt,value
2023-03-17T10:19:23.424Z,25.75
2023-03-17T10:22:40.743Z,25.75
2023-03-17T10:27:36.362Z,25.10
2023-03-17T10:32:36.784Z,26.35
2023-03-17T10:37:35.703Z,26.44
2023-03-17T10:42:45.120Z,26.92
2023-03-17T10:47:37.132Z,27.80
2023-03-17T10:52:40.160Z,27.83
2023-03-17T10:57:36.411Z,29.00
2023-03-17T11:02:44.835Z,29.46
2023-03-17T11:07:37.144Z,29.23
2023-03-17T11:12:38.483Z,29.28
2023-03-17T11:17:40.757Z,29.16
2023-03-17T11:22:37.754Z,29.01
2023-03-17T11:27:38.906Z,29.40
2023-03-17T11:32:37.763Z,29.43
2023-03-17T11:37:53.067Z,29.38
2023-03-17T11:42:40.440Z,29.38
2023-03-17T11:47:50.166Z,29.32
2023-03-17T11:52:44.107Z,29.48
2023-03-17T11:57:43.302Z,29.95
2023-03-17T12:02:40.331Z,30.58
2023-03-17T12:07:38.181Z,30.74
2023-03-17T12:12:41.740Z,31.62
2023-03-17T12:17:38.369Z,31.67
2023-03-17T12:22:37.261Z,31.85
2023-03-17T12:27:40.355Z,31.58
2023-03-17T12:27:55.636Z,32.15
2023-03-17T12:32:39.610Z,32.15
2023-03-17T12:37:33.711Z,32.40
2023-03-17T12:42:37.630Z,32.66
2023-03-17T12:47:47.587Z,32.63
2023-03-17T12:52:46.495Z,32.97
2023-03-17T12:57:39.635Z,33.09
2023-03-17T12:58:03.649Z,33.56
2023-03-17T13:02:37.522Z,33.56
2023-03-17T13:07:39.314Z,33.46
2023-03-17T13:12:53.468Z,33.61
2023-03-17T13:16:50.734Z,33.61
2023-03-17T13:17:33.912Z,33.61
2023-03-17T13:22:37.029Z,34.12
2023-03-17T13:27:43.383Z,34.16
2023-03-17T13:30:55.002Z,33.79
2023-03-17T13:32:37.635Z,33.79
2023-03-17T13:37:47.373Z,33.74
2023-03-17T13:42:45.040Z,33.92
2023-03-17T13:47:35.652Z,34.17
2023-03-17T13:52:40.187Z,34.22
2023-03-17T13:57:35.977Z,34.52
2023-03-17T14:02:37.874Z,34.99
2023-03-17T14:07:44.668Z,35.16
2023-03-17T14:12:41.721Z,35.04
2023-03-17T14:14:41.544Z,35.29
2023-03-17T14:17:40.584Z,35.29
2023-03-17T14:22:41.996Z,35.12
2023-03-17T14:27:34.349Z,35.17
2023-03-17T14:32:33.900Z,35.44
2023-03-17T14:37:37.099Z,35.28
2023-03-17T14:42:33.840Z,35.41
2023-03-17T14:47:38.409Z,35.44
2023-03-17T14:52:36.145Z,35.40
2023-03-17T14:57:12.371Z,35.67
2023-03-17T14:57:37.597Z,35.67
2023-03-17T15:02:36.866Z,35.89
2023-03-17T15:07:37.702Z,35.60
2023-03-17T15:08:27.467Z,35.67
2023-03-17T15:12:33.823Z,35.67
2023-03-17T15:17:35.708Z,35.48
2023-03-17T15:22:41.177Z,35.53
2023-03-17T15:27:33.586Z,35.70
2023-03-17T15:32:34.113Z,35.89
2023-03-17T15:37:34.172Z,36.12
2023-03-17T15:42:36.747Z,36.23
2023-03-17T15:47:35.975Z,36.35
2023-03-17T15:52:33.781Z,36.45
2023-03-17T15:57:33.514Z,36.51
2023-03-17T16:02:36.520Z,36.66
2023-03-17T16:07:33.824Z,36.86
2023-03-17T16:12:33.506Z,37.11
2023-03-17T16:17:34.215Z,37.47
2023-03-17T16:22:37.478Z,37.70
2023-03-17T16:27:33.466Z,37.93
2023-03-17T16:32:33.661Z,38.00
2023-03-17T16:37:33.888Z,38.23
2023-03-17T16:42:33.550Z,38.54
2023-03-17T16:44:31.474Z,38.56
2023-03-17T16:47:33.467Z,38.56
2023-03-17T16:52:33.656Z,38.83
2023-03-17T16:57:33.521Z,39.00
2023-03-17T17:02:33.530Z,39.21
2023-03-17T17:07:33.825Z,39.55
2023-03-17T17:12:33.526Z,39.65
2023-03-17T17:17:33.771Z,40.00
2023-03-17T17:22:33.676Z,40.56
2023-03-17T17:27:33.709Z,40.96
2023-03-17T17:32:34.354Z,41.17
2023-03-17T17:35:44.392Z,41.66
2023-03-17T17:37:34.453Z,41.66
2023-03-17T17:42:34.276Z,41.95
2023-03-17T17:47:33.884Z,42.08
2023-03-17T17:52:34.015Z,42.47
2023-03-17T17:53:49.071Z,42.68
2023-03-17T17:57:33.517Z,42.68
2023-03-17T18:02:33.695Z,43.04
2023-03-17T18:09:04.567Z,43.10
2023-03-17T18:14:02.195Z,43.51
2023-03-17T18:17:34.248Z,43.51
2023-03-17T18:22:34.024Z,43.70
2023-03-17T18:23:58.627Z,43.99
2023-03-17T18:27:33.747Z,43.99
2023-03-17T18:32:34.401Z,44.16
2023-03-17T18:37:27.277Z,44.41
2023-03-17T18:37:35.116Z,44.41
2023-03-17T18:42:33.795Z,44.74
2023-03-17T18:44:01.392Z,44.63
2023-03-17T18:47:35.646Z,44.63
2023-03-17T18:47:48.962Z,44.63
2023-03-17T18:52:35.554Z,44.50
2023-03-17T18:56:40.311Z,44.84
2023-03-17T18:57:33.511Z,44.84
2023-03-17T19:02:33.426Z,44.94
2023-03-17T19:07:34.213Z,45.05
2023-03-17T19:12:33.496Z,45.13
2023-03-17T19:14:32.337Z,45.03
2023-03-17T19:17:33.434Z,45.03
2023-03-17T19:22:03.198Z,45.20
2023-03-17T19:22:33.917Z,45.20
2023-03-17T19:27:33.530Z,45.10
2023-03-17T19:32:33.568Z,45.18
2023-03-17T19:37:35.052Z,45.55
2023-03-17T19:42:33.200Z,45.41
2023-03-17T19:42:34.000Z,45.41
2023-03-17T19:47:33.745Z,45.16
2023-03-17T19:48:23.367Z,45.35
2023-03-17T19:52:27.394Z,45.35
2023-03-17T19:52:33.229Z,45.35
2023-03-17T19:57:33.581Z,45.10
2023-03-17T20:01:18.248Z,45.05
2023-03-17T20:02:33.506Z,45.05
2023-03-17T20:07:27.395Z,45.01
2023-03-17T20:07:33.837Z,45.01
2023-03-17T20:11:38.624Z,45.32
2023-03-17T20:12:36.975Z,45.32
2023-03-17T20:15:51.908Z,45.56
2023-03-17T20:17:35.155Z,45.56
2023-03-17T20:22:34.159Z,45.43
2023-03-17T20:27:34.962Z,45.42
2023-03-17T20:31:03.511Z,45.72
2023-03-17T20:32:34.604Z,45.72
2023-03-17T20:36:36.140Z,45.54
2023-03-17T20:37:34.498Z,45.54
2023-03-17T20:42:38.817Z,45.68
2023-03-17T20:47:33.867Z,45.60
2023-03-17T20:52:34.754Z,45.57
2023-03-17T20:57:34.342Z,45.62
2023-03-17T20:59:38.007Z,45.63
2023-03-17T21:01:30.963Z,45.63
2023-03-17T21:02:33.842Z,45.63
2023-03-17T21:05:12.669Z,45.85
2023-03-17T21:07:33.305Z,45.85
2023-03-17T21:11:39.289Z,45.80
2023-03-17T21:12:33.417Z,45.80
2023-03-17T21:17:33.515Z,45.77
2023-03-17T21:21:22.534Z,45.78
2023-03-17T21:22:33.506Z,45.78
2023-03-17T21:27:34.626Z,45.86
2023-03-17T21:32:33.840Z,46.05
2023-03-17T21:37:33.353Z,46.08
2023-03-17T21:42:36.306Z,46.02
2023-03-17T21:47:35.373Z,46.43
2023-03-17T21:52:33.382Z,46.14
2023-03-17T21:54:01.106Z,46.08
2023-03-17T21:56:12.631Z,46.08
2023-03-17T21:57:33.699Z,46.08
2023-03-17T22:02:33.649Z,46.15
2023-03-17T22:07:33.690Z,45.90
2023-03-17T22:09:13.858Z,46.11
